createdAt,value
2022-10-05T00:01:01.888Z,101360.66
2022-10-05T00:06:04.330Z,101338.34
2022-10-05T00:11:13.666Z,101363.81
2022-10-05T00:16:19.720Z,101339.84
2022-10-05T00:21:25.695Z,101350.06
2022-10-05T00:26:33.954Z,101353.41
2022-10-05T00:31:36.719Z,101362.78
2022-10-05T00:36:40.599Z,101336.50
2022-10-05T00:42:17.796Z,101352.78
2022-10-05T00:47:43.330Z,101361.53
2022-10-05T00:52:54.359Z,101359.88
2022-10-05T00:58:22.072Z,101361.13
2022-10-05T01:03:39.752Z,101359.25
2022-10-05T01:08:59.888Z,101370.50
2022-10-05T01:14:20.855Z,101361.13
2022-10-05T01:19:44.947Z,101358.59
2022-10-05T01:25:08.596Z,101376.56
2022-10-05T01:30:20.081Z,101335.88
2022-10-05T01:35:47.913Z,101369.44
2022-10-05T01:41:13.716Z,101358.59
2022-10-05T01:46:21.919Z,101375.28
2022-10-05T01:51:53.676Z,101364.22
2022-10-05T01:57:22.070Z,101393.41
2022-10-05T02:02:26.463Z,101389.78
2022-10-05T02:07:40.407Z,101397.91
2022-10-05T02:12:45.523Z,101405.59
2022-10-05T02:17:51.433Z,101380.75
2022-10-05T02:23:05.886Z,101348.38
2022-10-05T02:28:17.189Z,101395.16
2022-10-05T02:33:30.801Z,101378.00
2022-10-05T02:38:50.135Z,101396.16
2022-10-05T02:44:15.374Z,101406.72
2022-10-05T02:49:36.446Z,101411.28
2022-10-05T02:55:01.192Z,101415.03
2022-10-05T03:00:23.925Z,101417.69
2022-10-05T03:05:28.585Z,101415.97
2022-10-05T03:10:36.124Z,101378.72
2022-10-05T03:15:59.170Z,101422.38
2022-10-05T03:21:22.489Z,101423.16
2022-10-05T03:26:53.938Z,101386.13
2022-10-05T03:32:09.866Z,101428.94
2022-10-05T03:37:23.407Z,101428.94
2022-10-05T03:42:45.652Z,101423.03
2022-10-05T03:48:01.825Z,101414.06
2022-10-05T03:53:12.381Z,101433.28
2022-10-05T03:58:22.005Z,101434.22
2022-10-05T04:03:40.001Z,101443.44
2022-10-05T04:09:00.813Z,101454.50
2022-10-05T04:14:24.688Z,101452.84
2022-10-05T04:19:38.952Z,101450.56
2022-10-05T04:24:56.746Z,101446.97
2022-10-05T04:30:09.202Z,101469.75
2022-10-05T04:35:14.540Z,101492.69
2022-10-05T04:40:42.845Z,101473.84
2022-10-05T04:46:22.683Z,101492.84
2022-10-05T04:51:38.782Z,101491.00
2022-10-05T04:56:46.092Z,101482.00
2022-10-05T05:02:07.096Z,101525.28
2022-10-05T05:07:36.034Z,101520.13
2022-10-05T05:13:15.592Z,101528.97
2022-10-05T05:18:41.637Z,101538.56
2022-10-05T05:24:39.898Z,101533.97
2022-10-05T05:29:54.153Z,101556.06
2022-10-05T05:35:14.847Z,101562.53
2022-10-05T05:40:24.327Z,101563.13
2022-10-05T05:46:02.769Z,101563.22
2022-10-05T05:51:26.637Z,101576.38
2022-10-05T05:56:46.165Z,101566.91
2022-10-05T06:01:54.484Z,101587.13
2022-10-05T06:07:01.628Z,101579.59
2022-10-05T06:12:10.709Z,101570.22
2022-10-05T06:17:55.267Z,101605.56
2022-10-05T06:23:03.457Z,101565.69
2022-10-05T06:28:18.558Z,101584.44
2022-10-05T06:33:39.950Z,101615.25
2022-10-05T06:38:44.856Z,101615.13
2022-10-05T06:44:10.259Z,101584.25
2022-10-05T06:49:19.860Z,101625.91
2022-10-05T06:54:35.597Z,101624.69
2022-10-05T06:59:53.617Z,101621.19
2022-10-05T07:05:26.622Z,101603.47
2022-10-05T07:10:41.201Z,101621.41
2022-10-05T07:16:07.829Z,101594.47
2022-10-05T07:21:40.074Z,101609.88
2022-10-05T07:26:58.187Z,101611.53
2022-10-05T07:32:15.497Z,101617.75
2022-10-05T07:37:43.825Z,101609.56
2022-10-05T07:42:57.871Z,101621.19
2022-10-05T07:48:14.423Z,101597.34
2022-10-05T07:53:33.488Z,101598.50
2022-10-05T07:58:43.494Z,101619.00
2022-10-05T08:03:57.849Z,101616.22
2022-10-05T08:09:24.596Z,101600.91
2022-10-05T08:14:53.587Z,101626.31
2022-10-05T08:20:33.773Z,101623.47
2022-10-05T08:25:46.733Z,101622.50
2022-10-05T08:30:57.499Z,101611.22
2022-10-05T08:36:12.285Z,101636.28
2022-10-05T08:41:17.270Z,101638.94
2022-10-05T08:46:22.432Z,101635.69
2022-10-05T08:51:34.967Z,101643.72
2022-10-05T08:56:51.779Z,101617.94
2022-10-05T09:02:30.471Z,101633.19
2022-10-05T09:07:46.210Z,101610.91
2022-10-05T09:12:54.145Z,101636.75
2022-10-05T09:18:18.092Z,101637.28
2022-10-05T09:23:43.249Z,101622.44
2022-10-05T09:28:47.967Z,101629.47
2022-10-05T09:33:53.641Z,101629.75
2022-10-05T09:39:05.234Z,101625.75
2022-10-05T09:44:38.113Z,101622.09
2022-10-05T09:50:18.355Z,101602.47
2022-10-05T09:55:43.999Z,101618.41
2022-10-05T10:01:33.078Z,101614.00
2022-10-05T10:07:07.335Z,101607.72
2022-10-05T10:12:21.395Z,101599.03
2022-10-05T10:18:00.010Z,101604.72
2022-10-05T10:23:26.933Z,101598.91
2022-10-05T10:28:48.097Z,101593.66
2022-10-05T10:34:10.602Z,101600.06
2022-10-05T10:39:24.701Z,101599.47
2022-10-05T10:44:55.414Z,101602.69
2022-10-05T10:50:19.076Z,101597.75
2022-10-05T10:55:45.771Z,101584.59
2022-10-05T11:01:03.932Z,101578.91
2022-10-05T11:06:35.339Z,101580.88
2022-10-05T11:12:09.748Z,101578.34
2022-10-05T11:17:35.856Z,101568.50
2022-10-05T11:22:53.312Z,101570.94
2022-10-05T11:27:55.682Z,101569.75
2022-10-05T11:33:03.857Z,101554.28
2022-10-05T11:38:21.012Z,101562.63
2022-10-05T11:43:48.107Z,101563.59
2022-10-05T11:49:00.910Z,101557.91
2022-10-05T11:54:20.556Z,101562.13
2022-10-05T11:59:27.252Z,101554.34
2022-10-05T12:04:47.473Z,101555.31
2022-10-05T12:10:11.034Z,101544.19
2022-10-05T12:15:25.270Z,101539.88
2022-10-05T12:20:41.879Z,101500.47
2022-10-05T12:26:11.510Z,101514.06
2022-10-05T12:31:49.011Z,101540.44
2022-10-05T12:37:04.043Z,101511.69
2022-10-05T12:42:40.883Z,101542.06
2022-10-05T12:48:07.818Z,101551.63
2022-10-05T12:53:29.343Z,101554.06
2022-10-05T12:59:00.287Z,101536.81
2022-10-05T13:04:29.100Z,101548.81
2022-10-05T13:10:00.206Z,101535.41
2022-10-05T13:15:16.019Z,101534.34
2022-10-05T13:20:34.263Z,101536.84
2022-10-05T13:25:44.038Z,101510.16
2022-10-05T13:31:15.734Z,101532.16
2022-10-05T13:37:16.912Z,101530.06
2022-10-05T13:42:38.633Z,101505.06
2022-10-05T13:48:28.782Z,101535.00
2022-10-05T13:53:49.249Z,101536.97
2022-10-05T13:59:33.676Z,101523.81
2022-10-05T14:04:58.791Z,101530.75
2022-10-05T14:10:05.355Z,101513.22
2022-10-05T14:15:29.111Z,101500.59
2022-10-05T14:20:34.829Z,101503.19
2022-10-05T14:25:50.773Z,101506.53
2022-10-05T14:31:14.056Z,101490.50
2022-10-05T14:36:35.465Z,101505.59
2022-10-05T14:41:48.050Z,101515.88
2022-10-05T14:46:55.922Z,101514.69
2022-10-05T14:51:59.043Z,101528.34
2022-10-05T14:57:13.032Z,101522.88
2022-10-05T15:02:36.496Z,101545.34
2022-10-05T15:07:44.496Z,101532.84
2022-10-05T15:12:48.779Z,101550.44
2022-10-05T15:17:55.743Z,101536.03
2022-10-05T15:23:35.627Z,101550.63
2022-10-05T15:28:49.682Z,101557.38
2022-10-05T15:34:18.663Z,101531.41
2022-10-05T15:39:37.672Z,101560.97
2022-10-05T15:44:39.770Z,101559.38
2022-10-05T15:49:51.009Z,101566.50
2022-10-05T15:55:09.104Z,101524.78
2022-10-05T16:00:14.053Z,101568.75
2022-10-05T16:05:56.660Z,101539.84
2022-10-05T16:10:59.922Z,101556.53
2022-10-05T16:16:21.612Z,101565.97
2022-10-05T16:21:32.389Z,101604.16
2022-10-05T16:26:46.203Z,101610.91
2022-10-05T16:32:00.874Z,101604.34
2022-10-05T16:37:41.699Z,101619.47
2022-10-05T16:43:09.666Z,101617.75
2022-10-05T16:48:21.087Z,101618.47
2022-10-05T16:53:47.787Z,101624.44
2022-10-05T16:58:58.834Z,101624.91
2022-10-05T17:04:29.905Z,101561.44
2022-10-05T17:09:50.804Z,101621.34
2022-10-05T17:15:29.654Z,101627.69
2022-10-05T17:20:58.497Z,101632.81
2022-10-05T17:26:28.321Z,101632.88
2022-10-05T17:31:32.394Z,101641.31
2022-10-05T17:36:43.653Z,101644.88
2022-10-05T17:41:47.204Z,101642.22
2022-10-05T17:46:51.938Z,101632.66
2022-10-05T17:52:12.889Z,101654.78
2022-10-05T17:57:23.128Z,101663.81
2022-10-05T18:02:43.141Z,101638.44
2022-10-05T18:07:50.544Z,101678.97
2022-10-05T18:13:05.045Z,101679.63
2022-10-05T18:18:55.089Z,101689.06
2022-10-05T18:24:00.025Z,101693.47
2022-10-05T18:29:39.920Z,101694.94
2022-10-05T18:35:13.670Z,101680.13
2022-10-05T18:40:56.022Z,101678.25
2022-10-05T18:46:04.656Z,101688.09
2022-10-05T18:51:41.920Z,101665.91
2022-10-05T18:56:46.947Z,101704.81
2022-10-05T19:02:01.592Z,101693.06
2022-10-05T19:07:24.618Z,101715.66
2022-10-05T19:12:32.490Z,101717.31
2022-10-05T19:17:49.494Z,101725.66
2022-10-05T19:23:10.268Z,101721.88
2022-10-05T19:28:18.477Z,101730.22
2022-10-05T19:33:29.331Z,101743.38
2022-10-05T19:39:09.632Z,101727.84
2022-10-05T19:44:28.384Z,101711.03
2022-10-05T19:49:50.611Z,101730.38
2022-10-05T19:55:21.787Z,101762.53
2022-10-05T20:00:35.722Z,101737.13
2022-10-05T20:05:38.441Z,101705.47
2022-10-05T20:10:40.653Z,101749.53
2022-10-05T20:16:27.924Z,101778.91
2022-10-05T20:21:52.415Z,101770.31
2022-10-05T20:27:16.179Z,101780.97
2022-10-05T20:32:18.902Z,101747.97
2022-10-05T20:37:21.226Z,101792.44
2022-10-05T20:42:24.349Z,101774.75
2022-10-05T20:47:27.338Z,101786.94
2022-10-05T20:52:29.819Z,101753.16
2022-10-05T20:57:32.116Z,101762.69
2022-10-05T21:02:34.442Z,101774.44
2022-10-05T21:07:36.899Z,101793.09
2022-10-05T21:12:39.100Z,101743.91
2022-10-05T21:17:41.629Z,101789.84
2022-10-05T21:22:44.164Z,101760.94
2022-10-05T21:27:49.159Z,101750.50
2022-10-05T21:32:51.441Z,101780.03
2022-10-05T21:37:53.958Z,101775.28
2022-10-05T21:42:56.134Z,101757.50
2022-10-05T21:47:58.998Z,101768.09
2022-10-05T21:53:04.298Z,101767.19
2022-10-05T21:58:06.858Z,101763.25
2022-10-05T22:03:09.302Z,101778.88
2022-10-05T22:08:25.812Z,101717.91
2022-10-05T22:13:39.581Z,101784.69
2022-10-05T22:18:43.175Z,101752.53
2022-10-05T22:23:46.698Z,101760.84
2022-10-05T22:28:49.360Z,101762.31
2022-10-05T22:33:52.076Z,101757.00
2022-10-05T22:38:54.548Z,101740.97
2022-10-05T22:43:56.871Z,101742.34
2022-10-05T22:48:59.439Z,101752.91
2022-10-05T22:54:02.260Z,101764.94
2022-10-05T22:59:04.678Z,101737.63
2022-10-05T23:04:09.135Z,101767.19
2022-10-05T23:09:11.387Z,101717.44
2022-10-05T23:14:13.764Z,101753.03
2022-10-05T23:19:16.210Z,101744.47
2022-10-05T23:24:18.556Z,101757.88
2022-10-05T23:29:20.723Z,101749.84
2022-10-05T23:34:22.926Z,101753.56
2022-10-05T23:39:25.191Z,101747.47
2022-10-05T23:44:27.437Z,101771.38
2022-10-05T23:49:29.744Z,101750.28
2022-10-05T23:54:31.894Z,101741.38
2022-10-05T23:59:34.237Z,101755.06
